Time,TemperatureF,DewpointF,PressureIn,WindDirection,WindDirectionDegrees,WindSpeedMPH,WindSpeedGustMPH,Humidity,HourlyPrecipIn,Conditions,Clouds,dailyrainin,SoftwareType,DateUTC
2015-03-05 00:00:00,48.8,48.8,30.10,North,360,0.0,0.0,100,0.00,CLR,CLR,0.00,WeatherDisplay:10.33,2015-03-05 08:00:00,
2015-03-05 00:15:00,48.6,48.6,30.10,North,360,0.0,0.0,100,0.00,CLR,CLR,0.00,WeatherDisplay:10.33,2015-03-05 08:15:00,
2015-03-05 00:30:00,48.2,48.2,30.10,North,360,0.0,0.0,100,0.00,CLR,CLR,0.00,WeatherDisplay:10.33,2015-03-05 08:30:00,
2015-03-05 00:45:00,47.7,47.7,30.10,North,360,0.0,0.0,100,0.00,CLR,CLR,0.00,WeatherDisplay:10.33,2015-03-05 08:45:00,
2015-03-05 01:00:00,47.4,47.4,30.11,North,360,0.0,0.0,100,0.00,CLR,CLR,0.00,WeatherDisplay:10.33,2015-03-05 09:00:00,
2015-03-05 01:15:00,47.3,47.3,30.10,North,360,0.0,0.0,100,0.00,CLR,CLR,0.00,WeatherDisplay:10.33,2015-03-05 09:15:00,
2015-03-05 01:30:00,46.8,46.8,30.10,North,360,0.0,0.0,100,0.00,CLR,CLR,0.00,WeatherDisplay:10.33,2015-03-05 09:30:00,
2015-03-05 01:45:00,46.4,46.4,30.10,North,360,0.0,0.0,100,0.00,,,0.00,WeatherDisplay:10.33,2015-03-05 09:45:00,
2015-03-05 02:00:00,46.0,46.0,30.10,North,360,0.0,0.0,100,0.00,,,0.00,WeatherDisplay:10.33,2015-03-05 10:00:00,
2015-03-05 02:15:00,45.8,45.8,30.10,North,360,0.0,0.0,100,0.00,,,0.00,WeatherDisplay:10.33,2015-03-05 10:15:00,
2015-03-05 02:30:00,46.0,46.0,30.10,North,360,0.0,0.0,100,0.00,,,0.00,WeatherDisplay:10.33,2015-03-05 10:30:00,
2015-03-05 02:45:00,45.8,45.8,30.10,North,360,0.0,0.0,100,0.00,,,0.00,WeatherDisplay:10.33,2015-03-05 10:45:00,
2015-03-05 03:00:00,45.1,45.1,30.09,North,360,0.0,0.0,100,0.00,,,0.00,WeatherDisplay:10.33,2015-03-05 11:00:00,
2015-03-05 03:15:00,44.8,44.8,30.10,North,360,0.0,0.0,100,0.00,,,0.00,WeatherDisplay:10.33,2015-03-05 11:15:00,
2015-03-05 03:30:00,44.3,44.3,30.09,North,360,0.0,0.0,100,0.00,,,0.00,WeatherDisplay:10.33,2015-03-05 11:30:00,
2015-03-05 03:45:00,44.2,44.2,30.10,North,360,0.0,0.0,100,0.00,,,0.00,WeatherDisplay:10.33,2015-03-05 11:45:00,
2015-03-05 04:00:00,44.1,44.1,30.10,North,360,0.0,0.0,100,0.00,,,0.00,WeatherDisplay:10.33,2015-03-05 12:00:00,
2015-03-05 04:15:00,43.8,43.8,30.11,North,360,0.0,0.0,100,0.00,,,0.00,WeatherDisplay:10.33,2015-03-05 12:15:00,
2015-03-05 04:30:00,43.8,43.8,30.12,North,360,0.0,0.0,100,0.00,,,0.00,WeatherDisplay:10.33,2015-03-05 12:30:00,
2015-03-05 04:45:00,43.3,43.3,30.13,North,11,0.0,1.0,100,0.00,,,0.00,WeatherDisplay:10.33,2015-03-05 12:45:00,
2015-03-05 05:00:00,43.2,43.2,30.13,NE,45,0.0,0.0,100,0.00,,,0.00,WeatherDisplay:10.33,2015-03-05 13:00:00,
2015-03-05 05:15:00,42.9,42.9,30.15,NE,45,0.0,0.0,100,0.00,,,0.00,WeatherDisplay:10.33,2015-03-05 13:15:00,
2015-03-05 05:30:00,42.8,42.8,30.15,NE,45,0.0,0.0,100,0.00,,,0.00,WeatherDisplay:10.33,2015-03-05 13:30:00,
2015-03-05 05:45:00,42.5,42.5,30.16,NE,45,0.0,0.0,100,0.00,,,0.00,WeatherDisplay:10.33,2015-03-05 13:45:00,
2015-03-05 06:00:00,42.2,42.2,30.16,NE,45,0.0,0.0,100,0.00,OVC,OVC,0.00,WeatherDisplay:10.33,2015-03-05 14:00:00,
2015-03-05 06:15:00,42.2,42.2,30.17,NE,45,0.0,0.0,100,0.00,OVC,OVC,0.00,WeatherDisplay:10.33,2015-03-05 14:15:00,
2015-03-05 06:30:00,42.1,42.1,30.17,NE,45,0.0,0.0,100,0.00,OVC,OVC,0.00,WeatherDisplay:10.33,2015-03-05 14:30:00,
2015-03-05 06:45:00,42.2,42.2,30.18,NE,45,0.0,0.0,100,0.00,OVC,OVC,0.00,WeatherDisplay:10.33,2015-03-05 14:45:00,